Airfield :
LOGIN :

Register | Disclaimer

   EN    FR    IT 

 










Legend :    VFR   Marginal VFR   IFR   Intensive IFR   Very Intensive IFR
Visi :
Ceiling :
>= 8 km
>= 3000ft
5 to 8 km
1000 to 3000 ft
1500m to 5 km
500 to 1000 ft
800 to 1500m
200 to 500 ft
< 800m
< 200 ft
Symbols :   Thunderstorms  Fog  Heavy snow  Heavy precipitations  Wind > 20 kt
SIGMETs :     Misc.  Thunderstorms  Icing  Turbulence  Mountain Waves  Volcanic Ashes







- Airport Elevation : 55 ft
- IATA code : DSA
- Download approach charts


EGCN - Robin Hood Doncaster Sheffield

CURRENT METAR :
  • 220420Z AUTO 25009KT 9999 FEW039/// OVC047/// 08/05 Q1006

EXPIRED METARs :
  • 220350Z AUTO 26009KT 9999 FEW035/// BKN043/// 07/05 Q1005
  • 220320Z AUTO 22007KT 9999 BKN048/// 07/05 Q1005
  • 220250Z AUTO 23005KT 200V270 9999 OVC048/// 07/04 Q1005
  • 220220Z AUTO 25009KT 9999 OVC048/// 07/05 Q1004
  • 220150Z AUTO 26012KT 9999 FEW041/// OVC049/// 08/06 Q1004
  • 220120Z AUTO 22006KT 9999 SCT024/// BKN030/// BKN040/// 06/05 Q1005

TAF TAF EGCN
Valid from the 22 at 00:00 until the 23 at 00:00 UTC


212300Z 2200/2224 25008KT 9999 FEW010 SCT020
PROB30 2200/2202 8000
No reported NOTAMs for that airfield.
1 SIGMET reported for the London FIR (EGTT) :
 
Severe mountain waves
EGTT SIGMET 01 VALID 220230/220630 EGRR
EGTT LONDON FIR SEV MTW FCST WI N5500 W00348 - N5500 E00025 - N5320 E00143 - N5309 W00144 - N5500 W00348 FL040/270 STNR NC=



MET'MAP, your aeronautical weather chart ! - Copyright ORBIFLY December 2007 - Disclaimer

ORBIFLY MET'MAP TEAM :

Programming & Development : Alexandra Zaïnal
Concept & Development : Baudouin d'Aumeries
Co-Development & Prog : Marc-Olivier Méhu
Technical & hardware support : Manuel Goepfert

Contact : metmap@orbifly.com




SOURCES & CREDITS :

   NOAA